Main page
METAR-TAF:

METAR-TAF

Airports :

Ruben Berta International Airport

Uruguaiana, Rio Grande do Sul, Brazil

latitude: 29-47S, longitude: 057-02W, elevation: 74 m

Current weather observation

The report was made 1 hour and 7 minutes ago, at 13:00 UTC
Wind 14 kt from the East/Southeast
Temperature 20°C
Humidity 60%
Pressure 1021 hPa
Visibility 10 km or more
no clouds below 1500 m and no cumulonimbus

METAR: SBUG 201300Z 11014KT CAVOK 20/12 Q1021

Time: 11:07 (14:07 UTC)

Forecast

The report was made 5 hours and 7 minutes ago, at 09:00 UTC
Forecast valid from 20 at 12 UTC to 20 at 24 UTC
Wind 13 kt from the East/Southeast
Visibility 10 km or more
no clouds below 1500 m and no cumulonimbus

TAF: SBUG 200900Z 2012/2024 11013KT CAVOK TN17/2012Z TX27/2018Z RMK PDJ

Weather observations and forecasts of more than 4000 airports (METAR and TAF reports).

The available stations are represented by yellow and red dots on the map.

Hover mouse over dot to see the name of the station.

Then click to see weather observations and forecasts.

To change the map : click on the green buttons with a black cross to zoom in, on the green button with a dash to zoom out, or on the green arrows for adjacent maps.


METAR-TAF: